METAR és
SPECI
METAR LHBP 311430Z 21008KT 9999 FEW030 05/M02 Q0989 R88/29//95 NOSIG=
METAR LHBP 311400Z 21008KT 9999 FEW027 05/M02 Q0989 R88/29//95 NOSIG=
METAR LHBP 311330Z 22008KT 9999 FEW027 05/M01 Q0988 R88/29//95 NOSIG=
METAR LHBP 311300Z 22007KT 9999 SCT026 05/M01 Q0988 R88/29//95 NOSIG=
METAR LHBP 311230Z 22010KT 9999 SCT024 04/M01 Q0988 R88/29//95 NOSIG=
METAR LHBP 311200Z 23011KT 9999 SCT022 03/M01 Q0988 R88/29//95 NOSIG=
TAF
TAF LHBP 311100Z 3112/0112 22011KT 9999 SCT023 BECMG 3113/3116 16006KT CAVOK BECMG 3117/3120 10004KT 6000 MIFG BECMG 3120/3123 VRB03KT 2500 FZBCFG BR SCT002 TEMPO 3122/0107 0400 FZFG OVC001 BECMG 0100/0103 04006KT BECMG 0107/0110 4000 BR BKN005 TEMPO 0110/0112 6000 NSW SCT010=
GAMET
FAHU41 LHBM 311100
LHCC GAMET VALID 311200/311800 LHBP-
LHCC BUDAPEST FIR BLW FL100
SECN I
SFC VIS: 12/14 2000-4000M SN NE OF LINE N4747 E02226 - N4821
E02155
SIG CLD: 12/14 BKN 400-1000/2000-4000 FT AGL NE OF LINE N4747
E02226 - N4831 E02117
SIGMETS APPLICABLE: NIL=
OMSZ: 2015. január 31. 12:02 (11:02  UTC)
[FAHU41]
AIRMET
Nincs érvényes távirat! 
WAHU41 LHBM 101020
LHCC AIRMET 01 VALID 101020/101200 LHBP-
LHCC BUDAPEST FIR SFC VIS 0600-5000M RA BR AND
BKN CLD 200-1000/6000FT AGL OBS WI N4744 E01820 -
N4814 E01936 - N4715 E02152 - N4616 E02106 - N4603 E01921
- N4744 E01820 MOV E WKN=
SIGMET
Nincs érvényes távirat! 
WSHU31 LHBM 302200
LHCC SIGMET 05 VALID 302200/310200 LHBP-
LHCC BUDAPEST FIR SEV ICE FCST E OF N4622 E01645 - N4800
E01900 5500FT/FL120 MOV ENE WKN=
SIGMET
Vulkáni hamufelhő
Not valid product! 
WVHU31 LHBM 271515 CCA
LHCC SIGMET 03 VALID 271515/271800 LHBP-
LHCC BUDAPEST FIR EXERCISE VOLCEX12/01
CNL VA SIGMET 02 271200/271800
EXERCISE EXERCISE EXERCISE VOLCEX12/01=